sensor_id;sensor_type;location;lat;lon;timestamp;temperature;humidity
71142;DHT22;58808;59.366;17.970;2022-08-14T00:02:02;19.80;99.90
71142;DHT22;58808;59.366;17.970;2022-08-14T00:04:29;19.70;99.90
71142;DHT22;58808;59.366;17.970;2022-08-14T00:06:55;19.80;99.90
71142;DHT22;58808;59.366;17.970;2022-08-14T00:09:20;19.70;99.90
71142;DHT22;58808;59.366;17.970;2022-08-14T00:11:46;19.70;99.90
71142;DHT22;58808;59.366;17.970;2022-08-14T00:14:11;19.70;99.90
71142;DHT22;58808;59.366;17.970;2022-08-14T00:16:37;19.70;99.90
71142;DHT22;58808;59.366;17.970;2022-08-14T00:19:03;19.70;99.90
71142;DHT22;58808;59.366;17.970;2022-08-14T00:21:29;19.60;99.90
71142;DHT22;58808;59.366;17.970;2022-08-14T00:23:54;19.70;99.90
71142;DHT22;58808;59.366;17.970;2022-08-14T00:26:22;19.70;99.90
71142;DHT22;58808;59.366;17.970;2022-08-14T00:28:49;19.70;99.90
71142;DHT22;58808;59.366;17.970;2022-08-14T00:31:15;19.60;99.90
71142;DHT22;58808;59.366;17.970;2022-08-14T00:33:40;19.70;99.90
71142;DHT22;58808;59.366;17.970;2022-08-14T00:36:06;19.70;99.90
71142;DHT22;58808;59.366;17.970;2022-08-14T00:38:33;19.70;99.90
71142;DHT22;58808;59.366;17.970;2022-08-14T00:40:59;19.60;99.90
71142;DHT22;58808;59.366;17.970;2022-08-14T00:43:24;19.60;99.90
71142;DHT22;58808;59.366;17.970;2022-08-14T00:45:50;19.60;99.90
71142;DHT22;58808;59.366;17.970;2022-08-14T00:48:16;19.60;99.90
71142;DHT22;58808;59.366;17.970;2022-08-14T00:50:43;19.50;99.90
71142;DHT22;58808;59.366;17.970;2022-08-14T00:53:09;19.50;99.90
71142;DHT22;58808;59.366;17.970;2022-08-14T00:55:36;19.50;99.90
71142;DHT22;58808;59.366;17.970;2022-08-14T00:58:06;19.40;99.90
71142;DHT22;58808;59.366;17.970;2022-08-14T01:00:50;19.40;99.90
71142;DHT22;58808;59.366;17.970;2022-08-14T01:03:18;19.40;99.90
71142;DHT22;58808;59.366;17.970;2022-08-14T01:05:45;19.40;99.90
71142;DHT22;58808;59.366;17.970;2022-08-14T01:08:19;19.40;99.90
71142;DHT22;58808;59.366;17.970;2022-08-14T01:10:46;19.30;99.90
71142;DHT22;58808;59.366;17.970;2022-08-14T01:13:19;19.30;99.90
71142;DHT22;58808;59.366;17.970;2022-08-14T01:15:46;19.30;99.90
71142;DHT22;58808;59.366;17.970;2022-08-14T01:18:13;19.50;99.90
71142;DHT22;58808;59.366;17.970;2022-08-14T01:20:58;19.40;99.90
71142;DHT22;58808;59.366;17.970;2022-08-14T01:23:35;19.50;99.90
71142;DHT22;58808;59.366;17.970;2022-08-14T01:26:02;19.40;99.90
71142;DHT22;58808;59.366;17.970;2022-08-14T01:28:28;19.20;99.90
71142;DHT22;58808;59.366;17.970;2022-08-14T01:30:58;19.30;99.90
71142;DHT22;58808;59.366;17.970;2022-08-14T01:33:25;19.40;99.90
71142;DHT22;58808;59.366;17.970;2022-08-14T01:35:58;19.40;99.90
71142;DHT22;58808;59.366;17.970;2022-08-14T01:38:28;19.20;99.90
71142;DHT22;58808;59.366;17.970;2022-08-14T01:41:00;19.10;99.90
71142;DHT22;58808;59.366;17.970;2022-08-14T01:43:26;19.10;99.90
71142;DHT22;58808;59.366;17.970;2022-08-14T01:45:57;19.10;99.90
71142;DHT22;58808;59.366;17.970;2022-08-14T01:48:23;19.10;99.90
71142;DHT22;58808;59.366;17.970;2022-08-14T01:50:49;19.10;99.90
71142;DHT22;58808;59.366;17.970;2022-08-14T01:53:14;19.20;99.90
71142;DHT22;58808;59.366;17.970;2022-08-14T01:55:42;19.20;99.90
71142;DHT22;58808;59.366;17.970;2022-08-14T01:58:08;19.10;99.90
71142;DHT22;58808;59.366;17.970;2022-08-14T02:00:40;19.20;99.90
71142;DHT22;58808;59.366;17.970;2022-08-14T02:03:06;19.10;99.90
71142;DHT22;58808;59.366;17.970;2022-08-14T02:05:31;19.10;99.90
71142;DHT22;58808;59.366;17.970;2022-08-14T02:07:58;19.00;99.90
71142;DHT22;58808;59.366;17.970;2022-08-14T02:10:24;19.00;99.90
71142;DHT22;58808;59.366;17.970;2022-08-14T02:12:54;18.90;99.90
71142;DHT22;58808;59.366;17.970;2022-08-14T02:15:20;18.90;99.90
71142;DHT22;58808;59.366;17.970;2022-08-14T02:17:48;19.00;99.90
71142;DHT22;58808;59.366;17.970;2022-08-14T02:20:14;18.90;99.90
71142;DHT22;58808;59.366;17.970;2022-08-14T02:22:42;18.90;99.90
71142;DHT22;58808;59.366;17.970;2022-08-14T02:25:08;18.80;99.90
71142;DHT22;58808;59.366;17.970;2022-08-14T02:27:34;18.80;99.90
71142;DHT22;58808;59.366;17.970;2022-08-14T02:30:02;18.80;99.90
71142;DHT22;58808;59.366;17.970;2022-08-14T02:32:30;18.90;99.90
71142;DHT22;58808;59.366;17.970;2022-08-14T02:34:55;18.90;99.90
71142;DHT22;58808;59.366;17.970;2022-08-14T02:37:21;18.80;99.90
71142;DHT22;58808;59.366;17.970;2022-08-14T02:39:47;18.80;99.90
71142;DHT22;58808;59.366;17.970;2022-08-14T02:42:18;18.80;99.90
71142;DHT22;58808;59.366;17.970;2022-08-14T02:44:46;18.80;99.90
71142;DHT22;58808;59.366;17.970;2022-08-14T02:47:13;18.70;99.90
71142;DHT22;58808;59.366;17.970;2022-08-14T02:49:38;18.80;99.90
71142;DHT22;58808;59.366;17.970;2022-08-14T02:52:05;18.70;99.90
71142;DHT22;58808;59.366;17.970;2022-08-14T02:54:32;18.70;99.90
71142;DHT22;58808;59.366;17.970;2022-08-14T02:56:59;18.70;99.90
71142;DHT22;58808;59.366;17.970;2022-08-14T02:59:27;18.80;99.90
71142;DHT22;58808;59.366;17.970;2022-08-14T03:01:55;18.90;99.90
71142;DHT22;58808;59.366;17.970;2022-08-14T03:04:22;18.80;99.90
71142;DHT22;58808;59.366;17.970;2022-08-14T03:06:48;18.80;99.90
71142;DHT22;58808;59.366;17.970;2022-08-14T03:09:13;18.90;99.90
71142;DHT22;58808;59.366;17.970;2022-08-14T03:11:39;18.90;99.90
71142;DHT22;58808;59.366;17.970;2022-08-14T03:14:09;18.90;99.90
71142;DHT22;58808;59.366;17.970;2022-08-14T03:16:38;18.80;99.90
71142;DHT22;58808;59.366;17.970;2022-08-14T03:19:05;18.80;99.90
71142;DHT22;58808;59.366;17.970;2022-08-14T03:21:35;18.80;99.90
71142;DHT22;58808;59.366;17.970;2022-08-14T03:24:02;18.80;99.90
71142;DHT22;58808;59.366;17.970;2022-08-14T03:26:40;18.80;99.90
71142;DHT22;58808;59.366;17.970;2022-08-14T03:29:06;18.80;99.90
71142;DHT22;58808;59.366;17.970;2022-08-14T03:31:32;18.80;99.90
71142;DHT22;58808;59.366;17.970;2022-08-14T03:33:58;18.70;99.90
71142;DHT22;58808;59.366;17.970;2022-08-14T03:36:24;18.60;99.90
71142;DHT22;58808;59.366;17.970;2022-08-14T03:38:50;18.60;99.90
71142;DHT22;58808;59.366;17.970;2022-08-14T03:41:21;18.80;99.90
71142;DHT22;58808;59.366;17.970;2022-08-14T03:43:49;18.80;99.90
71142;DHT22;58808;59.366;17.970;2022-08-14T03:46:16;18.80;99.90
71142;DHT22;58808;59.366;17.970;2022-08-14T03:48:43;18.60;99.90
71142;DHT22;58808;59.366;17.970;2022-08-14T03:51:11;18.60;99.90
71142;DHT22;58808;59.366;17.970;2022-08-14T03:53:39;18.70;99.90
71142;DHT22;58808;59.366;17.970;2022-08-14T03:56:07;18.70;99.90
71142;DHT22;58808;59.366;17.970;2022-08-14T03:58:37;18.60;99.90
71142;DHT22;58808;59.366;17.970;2022-08-14T04:01:02;18.70;99.90
71142;DHT22;58808;59.366;17.970;2022-08-14T04:03:28;18.70;99.90
71142;DHT22;58808;59.366;17.970;2022-08-14T04:05:54;18.90;99.90
71142;DHT22;58808;59.366;17.970;2022-08-14T04:08:20;18.80;99.90
71142;DHT22;58808;59.366;17.970;2022-08-14T04:10:46;18.80;99.90
71142;DHT22;58808;59.366;17.970;2022-08-14T04:13:12;18.90;99.90
71142;DHT22;58808;59.366;17.970;2022-08-14T04:15:43;18.80;99.90
71142;DHT22;58808;59.366;17.970;2022-08-14T04:18:10;18.70;99.90
71142;DHT22;58808;59.366;17.970;2022-08-14T04:20:39;18.90;99.90
71142;DHT22;58808;59.366;17.970;2022-08-14T04:23:07;18.90;99.90
71142;DHT22;58808;59.366;17.970;2022-08-14T04:25:33;18.90;99.90
71142;DHT22;58808;59.366;17.970;2022-08-14T04:28:01;19.00;99.90
71142;DHT22;58808;59.366;17.970;2022-08-14T04:30:28;19.00;99.90
71142;DHT22;58808;59.366;17.970;2022-08-14T04:32:55;19.00;99.90
71142;DHT22;58808;59.366;17.970;2022-08-14T04:35:22;19.10;99.90
71142;DHT22;58808;59.366;17.970;2022-08-14T04:37:47;19.00;99.90
71142;DHT22;58808;59.366;17.970;2022-08-14T04:40:32;19.10;99.90
71142;DHT22;58808;59.366;17.970;2022-08-14T04:43:16;19.10;99.90
71142;DHT22;58808;59.366;17.970;2022-08-14T04:46:04;19.20;99.90
71142;DHT22;58808;59.366;17.970;2022-08-14T04:48:30;19.30;99.90
71142;DHT22;58808;59.366;17.970;2022-08-14T04:50:55;19.30;99.90
71142;DHT22;58808;59.366;17.970;2022-08-14T04:53:24;19.30;99.90
71142;DHT22;58808;59.366;17.970;2022-08-14T04:55:51;19.30;99.90
71142;DHT22;58808;59.366;17.970;2022-08-14T04:58:19;19.30;99.90
71142;DHT22;58808;59.366;17.970;2022-08-14T05:00:46;19.40;99.90
71142;DHT22;58808;59.366;17.970;2022-08-14T05:03:16;19.40;99.90
71142;DHT22;58808;59.366;17.970;2022-08-14T05:05:44;19.50;99.90
71142;DHT22;58808;59.366;17.970;2022-08-14T05:08:10;19.50;99.90
71142;DHT22;58808;59.366;17.970;2022-08-14T05:10:41;19.50;99.90
71142;DHT22;58808;59.366;17.970;2022-08-14T05:13:08;19.40;99.90
71142;DHT22;58808;59.366;17.970;2022-08-14T05:18:15;19.50;99.90
71142;DHT22;58808;59.366;17.970;2022-08-14T05:20:43;19.50;99.90
71142;DHT22;58808;59.366;17.970;2022-08-14T05:23:15;19.60;99.90
71142;DHT22;58808;59.366;17.970;2022-08-14T05:25:43;19.70;99.90
71142;DHT22;58808;59.366;17.970;2022-08-14T05:28:15;19.70;99.90
71142;DHT22;58808;59.366;17.970;2022-08-14T05:30:44;19.70;99.90
71142;DHT22;58808;59.366;17.970;2022-08-14T05:33:11;19.60;99.90
71142;DHT22;58808;59.366;17.970;2022-08-14T05:35:37;19.70;99.90
71142;DHT22;58808;59.366;17.970;2022-08-14T05:38:11;19.80;99.90
71142;DHT22;58808;59.366;17.970;2022-08-14T05:40:39;19.70;99.90
71142;DHT22;58808;59.366;17.970;2022-08-14T05:43:05;19.80;99.90
71142;DHT22;58808;59.366;17.970;2022-08-14T05:45:30;20.00;99.90
71142;DHT22;58808;59.366;17.970;2022-08-14T05:47:56;20.10;99.90
71142;DHT22;58808;59.366;17.970;2022-08-14T05:50:22;20.00;99.90
71142;DHT22;58808;59.366;17.970;2022-08-14T05:52:49;20.20;99.90
71142;DHT22;58808;59.366;17.970;2022-08-14T05:55:15;20.30;99.90
71142;DHT22;58808;59.366;17.970;2022-08-14T05:58:07;20.20;99.90
71142;DHT22;58808;59.366;17.970;2022-08-14T06:00:39;20.30;99.90
71142;DHT22;58808;59.366;17.970;2022-08-14T06:03:07;20.40;99.90
71142;DHT22;58808;59.366;17.970;2022-08-14T06:05:34;20.30;99.90
71142;DHT22;58808;59.366;17.970;2022-08-14T06:08:00;20.30;99.90
71142;DHT22;58808;59.366;17.970;2022-08-14T06:10:29;20.30;99.90
71142;DHT22;58808;59.366;17.970;2022-08-14T06:12:58;20.30;99.90
71142;DHT22;58808;59.366;17.970;2022-08-14T06:15:28;20.40;99.90
71142;DHT22;58808;59.366;17.970;2022-08-14T06:17:54;20.40;99.90
71142;DHT22;58808;59.366;17.970;2022-08-14T06:20:22;20.50;99.90
71142;DHT22;58808;59.366;17.970;2022-08-14T06:22:49;20.50;99.90
71142;DHT22;58808;59.366;17.970;2022-08-14T06:25:15;20.60;99.90
71142;DHT22;58808;59.366;17.970;2022-08-14T06:27:42;20.80;99.90
71142;DHT22;58808;59.366;17.970;2022-08-14T06:30:18;20.80;99.90
71142;DHT22;58808;59.366;17.970;2022-08-14T06:32:45;20.80;99.90
71142;DHT22;58808;59.366;17.970;2022-08-14T06:35:12;20.90;99.90
71142;DHT22;58808;59.366;17.970;2022-08-14T06:37:44;20.90;99.90
71142;DHT22;58808;59.366;17.970;2022-08-14T06:40:12;21.10;99.90
71142;DHT22;58808;59.366;17.970;2022-08-14T06:42:39;21.20;99.90
71142;DHT22;58808;59.366;17.970;2022-08-14T06:45:06;21.20;99.90
71142;DHT22;58808;59.366;17.970;2022-08-14T06:47:36;21.20;99.90
71142;DHT22;58808;59.366;17.970;2022-08-14T06:50:08;21.30;99.90
71142;DHT22;58808;59.366;17.970;2022-08-14T06:52:35;21.30;99.90
71142;DHT22;58808;59.366;17.970;2022-08-14T06:55:03;21.50;99.90
71142;DHT22;58808;59.366;17.970;2022-08-14T06:57:35;21.50;99.90
71142;DHT22;58808;59.366;17.970;2022-08-14T07:00:07;21.60;99.70
71142;DHT22;58808;59.366;17.970;2022-08-14T07:02:33;21.70;99.20
71142;DHT22;58808;59.366;17.970;2022-08-14T07:05:18;22.00;98.20
71142;DHT22;58808;59.366;17.970;2022-08-14T07:08:02;22.20;97.60
71142;DHT22;58808;59.366;17.970;2022-08-14T07:10:31;22.50;95.40
71142;DHT22;58808;59.366;17.970;2022-08-14T07:12:57;22.90;92.50
71142;DHT22;58808;59.366;17.970;2022-08-14T07:15:23;23.30;90.90
71142;DHT22;58808;59.366;17.970;2022-08-14T07:17:52;23.70;89.00
71142;DHT22;58808;59.366;17.970;2022-08-14T07:20:18;23.90;85.80
71142;DHT22;58808;59.366;17.970;2022-08-14T07:22:45;24.10;82.50
71142;DHT22;58808;59.366;17.970;2022-08-14T07:25:15;24.20;82.00
71142;DHT22;58808;59.366;17.970;2022-08-14T07:27:43;24.40;78.00
71142;DHT22;58808;59.366;17.970;2022-08-14T07:30:14;24.60;73.70
71142;DHT22;58808;59.366;17.970;2022-08-14T07:32:39;24.80;73.70
71142;DHT22;58808;59.366;17.970;2022-08-14T07:35:05;25.00;67.10
71142;DHT22;58808;59.366;17.970;2022-08-14T07:37:31;25.20;62.50
71142;DHT22;58808;59.366;17.970;2022-08-14T07:40:01;25.40;60.40
71142;DHT22;58808;59.366;17.970;2022-08-14T07:42:26;25.50;58.40
71142;DHT22;58808;59.366;17.970;2022-08-14T07:44:53;25.60;57.10
71142;DHT22;58808;59.366;17.970;2022-08-14T07:47:19;25.70;55.20
71142;DHT22;58808;59.366;17.970;2022-08-14T07:50:00;25.80;53.90
71142;DHT22;58808;59.366;17.970;2022-08-14T07:52:27;25.90;54.40
71142;DHT22;58808;59.366;17.970;2022-08-14T07:54:56;26.10;54.40
71142;DHT22;58808;59.366;17.970;2022-08-14T07:57:22;26.30;53.50
71142;DHT22;58808;59.366;17.970;2022-08-14T07:59:47;26.50;52.80
71142;DHT22;58808;59.366;17.970;2022-08-14T08:02:15;26.60;52.50
71142;DHT22;58808;59.366;17.970;2022-08-14T08:04:45;26.70;50.10
71142;DHT22;58808;59.366;17.970;2022-08-14T08:07:15;26.80;49.40
71142;DHT22;58808;59.366;17.970;2022-08-14T08:09:43;26.60;49.30
71142;DHT22;58808;59.366;17.970;2022-08-14T08:12:12;26.60;50.40
71142;DHT22;58808;59.366;17.970;2022-08-14T08:14:43;26.80;48.60
71142;DHT22;58808;59.366;17.970;2022-08-14T08:17:12;26.90;48.20
71142;DHT22;58808;59.366;17.970;2022-08-14T08:19:38;27.10;47.40
71142;DHT22;58808;59.366;17.970;2022-08-14T08:22:03;27.20;46.70
71142;DHT22;58808;59.366;17.970;2022-08-14T08:24:29;27.30;46.40
71142;DHT22;58808;59.366;17.970;2022-08-14T08:26:55;27.30;46.50
71142;DHT22;58808;59.366;17.970;2022-08-14T08:29:22;27.50;45.30
71142;DHT22;58808;59.366;17.970;2022-08-14T08:31:50;27.60;43.90
71142;DHT22;58808;59.366;17.970;2022-08-14T08:34:17;27.60;44.20
71142;DHT22;58808;59.366;17.970;2022-08-14T08:36:43;27.60;44.20
71142;DHT22;58808;59.366;17.970;2022-08-14T08:39:10;27.60;43.10
71142;DHT22;58808;59.366;17.970;2022-08-14T08:41:44;27.80;42.30
71142;DHT22;58808;59.366;17.970;2022-08-14T08:44:12;28.00;41.20
71142;DHT22;58808;59.366;17.970;2022-08-14T08:46:38;28.00;41.30
71142;DHT22;58808;59.366;17.970;2022-08-14T08:49:05;28.10;41.30
71142;DHT22;58808;59.366;17.970;2022-08-14T08:51:36;28.40;40.60
71142;DHT22;58808;59.366;17.970;2022-08-14T08:54:14;28.60;40.00
71142;DHT22;58808;59.366;17.970;2022-08-14T08:56:49;28.80;40.30
71142;DHT22;58808;59.366;17.970;2022-08-14T08:59:23;28.90;39.90
71142;DHT22;58808;59.366;17.970;2022-08-14T09:01:54;29.00;40.40
71142;DHT22;58808;59.366;17.970;2022-08-14T09:04:23;28.90;38.30
71142;DHT22;58808;59.366;17.970;2022-08-14T09:06:50;29.00;38.30
71142;DHT22;58808;59.366;17.970;2022-08-14T09:09:22;29.20;37.50
71142;DHT22;58808;59.366;17.970;2022-08-14T09:11:49;29.30;35.60
71142;DHT22;58808;59.366;17.970;2022-08-14T09:14:15;29.30;34.50
71142;DHT22;58808;59.366;17.970;2022-08-14T09:16:40;29.40;35.00
71142;DHT22;58808;59.366;17.970;2022-08-14T09:19:06;29.30;33.90
71142;DHT22;58808;59.366;17.970;2022-08-14T09:21:33;29.40;33.50
71142;DHT22;58808;59.366;17.970;2022-08-14T09:24:00;29.50;33.30
71142;DHT22;58808;59.366;17.970;2022-08-14T09:26:26;29.80;32.00
71142;DHT22;58808;59.366;17.970;2022-08-14T09:28:54;29.80;31.20
71142;DHT22;58808;59.366;17.970;2022-08-14T09:31:21;29.90;30.60
71142;DHT22;58808;59.366;17.970;2022-08-14T09:42:32;30.20;29.40
71142;DHT22;58808;59.366;17.970;2022-08-14T09:47:51;30.20;28.20
71142;DHT22;58808;59.366;17.970;2022-08-14T09:50:42;30.40;27.40
71142;DHT22;58808;59.366;17.970;2022-08-14T09:53:09;30.40;27.60
71142;DHT22;58808;59.366;17.970;2022-08-14T09:55:36;30.50;27.10
71142;DHT22;58808;59.366;17.970;2022-08-14T09:58:19;30.60;26.90
71142;DHT22;58808;59.366;17.970;2022-08-14T10:00:54;30.60;27.00
71142;DHT22;58808;59.366;17.970;2022-08-14T10:03:30;30.80;27.00
71142;DHT22;58808;59.366;17.970;2022-08-14T10:06:12;31.10;26.90
71142;DHT22;58808;59.366;17.970;2022-08-14T10:08:50;31.30;26.40
71142;DHT22;58808;59.366;17.970;2022-08-14T10:11:25;31.20;26.70
71142;DHT22;58808;59.366;17.970;2022-08-14T10:13:53;31.00;26.30
71142;DHT22;58808;59.366;17.970;2022-08-14T10:16:22;31.00;27.00
71142;DHT22;58808;59.366;17.970;2022-08-14T10:19:10;31.10;27.50
71142;DHT22;58808;59.366;17.970;2022-08-14T10:21:38;31.20;26.70
71142;DHT22;58808;59.366;17.970;2022-08-14T10:24:04;31.40;26.30
71142;DHT22;58808;59.366;17.970;2022-08-14T10:26:33;31.50;26.40
71142;DHT22;58808;59.366;17.970;2022-08-14T10:29:05;31.60;26.80
71142;DHT22;58808;59.366;17.970;2022-08-14T10:31:32;31.30;26.80
71142;DHT22;58808;59.366;17.970;2022-08-14T10:34:07;31.20;27.90
71142;DHT22;58808;59.366;17.970;2022-08-14T10:36:43;31.30;27.40
71142;DHT22;58808;59.366;17.970;2022-08-14T10:39:17;31.30;26.40
71142;DHT22;58808;59.366;17.970;2022-08-14T10:41:45;31.10;26.90
71142;DHT22;58808;59.366;17.970;2022-08-14T10:44:20;31.10;27.00
71142;DHT22;58808;59.366;17.970;2022-08-14T10:46:52;31.20;27.80
71142;DHT22;58808;59.366;17.970;2022-08-14T10:49:25;31.20;28.50
71142;DHT22;58808;59.366;17.970;2022-08-14T10:54:30;31.60;25.90
71142;DHT22;58808;59.366;17.970;2022-08-14T10:56:57;31.80;25.50
71142;DHT22;58808;59.366;17.970;2022-08-14T10:59:23;31.90;25.40
71142;DHT22;58808;59.366;17.970;2022-08-14T11:01:49;32.00;24.90
71142;DHT22;58808;59.366;17.970;2022-08-14T11:04:23;32.00;25.00
71142;DHT22;58808;59.366;17.970;2022-08-14T11:06:54;31.90;25.90
71142;DHT22;58808;59.366;17.970;2022-08-14T11:09:20;31.80;25.50
71142;DHT22;58808;59.366;17.970;2022-08-14T11:11:45;31.70;25.10
71142;DHT22;58808;59.366;17.970;2022-08-14T11:14:15;31.80;25.50
71142;DHT22;58808;59.366;17.970;2022-08-14T11:16:41;31.70;24.70
71142;DHT22;58808;59.366;17.970;2022-08-14T11:19:09;31.70;25.30
71142;DHT22;58808;59.366;17.970;2022-08-14T11:21:38;31.90;24.30
71142;DHT22;58808;59.366;17.970;2022-08-14T11:24:05;31.90;24.40
71142;DHT22;58808;59.366;17.970;2022-08-14T11:26:33;32.00;25.80
71142;DHT22;58808;59.366;17.970;2022-08-14T11:29:02;32.20;24.10
71142;DHT22;58808;59.366;17.970;2022-08-14T11:31:32;32.40;23.30
71142;DHT22;58808;59.366;17.970;2022-08-14T11:33:58;32.60;23.50
71142;DHT22;58808;59.366;17.970;2022-08-14T11:36:26;32.50;22.30
71142;DHT22;58808;59.366;17.970;2022-08-14T11:38:53;32.30;22.60
71142;DHT22;58808;59.366;17.970;2022-08-14T11:41:19;32.20;23.00
71142;DHT22;58808;59.366;17.970;2022-08-14T11:43:46;32.30;22.70
71142;DHT22;58808;59.366;17.970;2022-08-14T11:46:16;32.40;23.10
71142;DHT22;58808;59.366;17.970;2022-08-14T11:48:50;32.50;23.30
71142;DHT22;58808;59.366;17.970;2022-08-14T11:51:22;32.60;22.90
71142;DHT22;58808;59.366;17.970;2022-08-14T11:54:01;32.70;22.50
71142;DHT22;58808;59.366;17.970;2022-08-14T11:56:37;32.50;22.20
71142;DHT22;58808;59.366;17.970;2022-08-14T11:59:06;32.30;22.40
71142;DHT22;58808;59.366;17.970;2022-08-14T12:01:31;32.40;22.50
71142;DHT22;58808;59.366;17.970;2022-08-14T12:04:12;32.40;22.50
71142;DHT22;58808;59.366;17.970;2022-08-14T12:06:52;32.50;22.00
71142;DHT22;58808;59.366;17.970;2022-08-14T12:09:33;32.40;23.10
71142;DHT22;58808;59.366;17.970;2022-08-14T12:12:01;32.40;22.00
71142;DHT22;58808;59.366;17.970;2022-08-14T12:14:50;32.40;22.90
71142;DHT22;58808;59.366;17.970;2022-08-14T12:17:22;32.40;22.10
71142;DHT22;58808;59.366;17.970;2022-08-14T12:19:50;32.10;22.10
71142;DHT22;58808;59.366;17.970;2022-08-14T12:22:16;32.10;22.40
71142;DHT22;58808;59.366;17.970;2022-08-14T12:24:42;32.10;23.10
71142;DHT22;58808;59.366;17.970;2022-08-14T12:27:11;32.40;23.10
71142;DHT22;58808;59.366;17.970;2022-08-14T12:29:50;32.50;23.60
71142;DHT22;58808;59.366;17.970;2022-08-14T12:32:16;32.40;23.90
71142;DHT22;58808;59.366;17.970;2022-08-14T12:34:42;32.40;24.00
71142;DHT22;58808;59.366;17.970;2022-08-14T12:37:08;32.60;23.60
71142;DHT22;58808;59.366;17.970;2022-08-14T12:39:35;32.70;22.90
71142;DHT22;58808;59.366;17.970;2022-08-14T12:42:01;32.60;22.70
71142;DHT22;58808;59.366;17.970;2022-08-14T12:44:38;32.60;23.10
71142;DHT22;58808;59.366;17.970;2022-08-14T12:47:11;32.30;22.70
71142;DHT22;58808;59.366;17.970;2022-08-14T12:49:51;32.40;23.20
71142;DHT22;58808;59.366;17.970;2022-08-14T12:52:37;32.40;23.40
71142;DHT22;58808;59.366;17.970;2022-08-14T12:55:10;32.40;24.80
71142;DHT22;58808;59.366;17.970;2022-08-14T12:57:43;32.20;25.70
71142;DHT22;58808;59.366;17.970;2022-08-14T13:00:15;32.10;26.30
71142;DHT22;58808;59.366;17.970;2022-08-14T13:02:42;32.40;26.40
71142;DHT22;58808;59.366;17.970;2022-08-14T13:05:09;32.70;25.70
71142;DHT22;58808;59.366;17.970;2022-08-14T13:07:37;32.50;25.70
71142;DHT22;58808;59.366;17.970;2022-08-14T13:10:06;32.50;26.00
71142;DHT22;58808;59.366;17.970;2022-08-14T13:12:32;32.30;25.90
71142;DHT22;58808;59.366;17.970;2022-08-14T13:14:58;32.30;26.30
71142;DHT22;58808;59.366;17.970;2022-08-14T13:17:27;32.50;26.10
71142;DHT22;58808;59.366;17.970;2022-08-14T13:19:56;32.50;26.50
71142;DHT22;58808;59.366;17.970;2022-08-14T13:22:22;32.80;26.90
71142;DHT22;58808;59.366;17.970;2022-08-14T13:24:54;32.90;26.90
71142;DHT22;58808;59.366;17.970;2022-08-14T13:27:22;32.70;26.30
71142;DHT22;58808;59.366;17.970;2022-08-14T13:29:51;32.60;26.70
71142;DHT22;58808;59.366;17.970;2022-08-14T13:32:18;32.50;27.40
71142;DHT22;58808;59.366;17.970;2022-08-14T13:34:46;32.40;28.30
71142;DHT22;58808;59.366;17.970;2022-08-14T13:37:18;32.30;28.10
71142;DHT22;58808;59.366;17.970;2022-08-14T13:39:48;32.40;27.20
71142;DHT22;58808;59.366;17.970;2022-08-14T13:42:16;32.40;27.10
71142;DHT22;58808;59.366;17.970;2022-08-14T13:44:43;32.50;27.30
71142;DHT22;58808;59.366;17.970;2022-08-14T13:47:10;32.50;28.20
71142;DHT22;58808;59.366;17.970;2022-08-14T13:49:36;32.30;28.60
71142;DHT22;58808;59.366;17.970;2022-08-14T13:52:03;32.10;28.90
71142;DHT22;58808;59.366;17.970;2022-08-14T13:54:29;32.00;29.60
71142;DHT22;58808;59.366;17.970;2022-08-14T13:56:59;31.80;28.80
71142;DHT22;58808;59.366;17.970;2022-08-14T13:59:27;31.80;29.10
71142;DHT22;58808;59.366;17.970;2022-08-14T14:01:55;32.20;29.20
71142;DHT22;58808;59.366;17.970;2022-08-14T14:04:30;32.30;29.30
71142;DHT22;58808;59.366;17.970;2022-08-14T14:06:59;32.30;29.20
71142;DHT22;58808;59.366;17.970;2022-08-14T14:09:28;32.40;29.50
71142;DHT22;58808;59.366;17.970;2022-08-14T14:11:57;32.50;29.30
71142;DHT22;58808;59.366;17.970;2022-08-14T14:14:24;32.50;30.00
71142;DHT22;58808;59.366;17.970;2022-08-14T14:16:50;32.50;29.60
71142;DHT22;58808;59.366;17.970;2022-08-14T14:19:18;32.60;29.20
71142;DHT22;58808;59.366;17.970;2022-08-14T14:21:44;32.50;29.50
71142;DHT22;58808;59.366;17.970;2022-08-14T14:24:10;32.40;30.00
71142;DHT22;58808;59.366;17.970;2022-08-14T14:26:36;32.40;29.80
71142;DHT22;58808;59.366;17.970;2022-08-14T14:29:05;32.10;30.20
71142;DHT22;58808;59.366;17.970;2022-08-14T14:31:31;31.90;30.90
71142;DHT22;58808;59.366;17.970;2022-08-14T14:34:00;32.00;31.80
71142;DHT22;58808;59.366;17.970;2022-08-14T14:36:28;32.30;30.90
71142;DHT22;58808;59.366;17.970;2022-08-14T14:39:06;32.10;30.70
71142;DHT22;58808;59.366;17.970;2022-08-14T14:41:37;32.00;30.70
71142;DHT22;58808;59.366;17.970;2022-08-14T14:44:06;31.60;31.90
71142;DHT22;58808;59.366;17.970;2022-08-14T14:46:37;31.80;32.20
71142;DHT22;58808;59.366;17.970;2022-08-14T14:49:06;31.90;32.30
71142;DHT22;58808;59.366;17.970;2022-08-14T14:51:32;31.80;32.50
71142;DHT22;58808;59.366;17.970;2022-08-14T14:53:57;31.40;33.40
71142;DHT22;58808;59.366;17.970;2022-08-14T14:56:24;31.30;33.90
71142;DHT22;58808;59.366;17.970;2022-08-14T14:58:50;31.00;34.70
71142;DHT22;58808;59.366;17.970;2022-08-14T15:01:16;31.10;34.60
71142;DHT22;58808;59.366;17.970;2022-08-14T15:03:46;31.10;34.40
71142;DHT22;58808;59.366;17.970;2022-08-14T15:06:12;31.10;34.80
71142;DHT22;58808;59.366;17.970;2022-08-14T15:08:41;31.00;34.90
71142;DHT22;58808;59.366;17.970;2022-08-14T15:11:07;31.00;35.00
71142;DHT22;58808;59.366;17.970;2022-08-14T15:13:33;31.10;35.10
71142;DHT22;58808;59.366;17.970;2022-08-14T15:16:03;31.00;35.10
71142;DHT22;58808;59.366;17.970;2022-08-14T15:18:28;30.70;35.50
71142;DHT22;58808;59.366;17.970;2022-08-14T15:20:54;30.50;35.20
71142;DHT22;58808;59.366;17.970;2022-08-14T15:23:22;30.20;36.40
71142;DHT22;58808;59.366;17.970;2022-08-14T15:25:48;30.20;36.30
71142;DHT22;58808;59.366;17.970;2022-08-14T15:28:14;30.00;36.80
71142;DHT22;58808;59.366;17.970;2022-08-14T15:30:42;30.10;37.50
71142;DHT22;58808;59.366;17.970;2022-08-14T15:33:09;29.90;36.80
71142;DHT22;58808;59.366;17.970;2022-08-14T15:35:40;29.70;37.30
71142;DHT22;58808;59.366;17.970;2022-08-14T15:38:06;29.60;37.50
71142;DHT22;58808;59.366;17.970;2022-08-14T15:40:36;29.20;37.50
71142;DHT22;58808;59.366;17.970;2022-08-14T15:43:03;29.10;37.70